Terminal Aerodrome Forecast
Issued by NWS

Home | Current Version | Previous Version | Graphics & Text | Print | Product List | Glossary On
Versions: 1 2 3 4 5 6 7 8 9 10 11 12 13 14 15 16 17 18 19 20 21
000
FTUS43 KABR 231732
TAFMBG
TAF
KMBG 231732Z 2318/2418 16012KT P6SM OVC035
     FM240300 08008KT P6SM OVC015
     FM241200 09010KT 6SM -SHRA BKN011 OVC030=

USA.gov is the U.S. government's official web portal to all federal, state and local government web resources and services.